Time;durP1;ratioP1;P1;durP2;ratioP2;P2;SDS_P1;SDS_P2;PMS_P1;PMS_P2;Temp;Humidity;BMP_temperature;BMP_pressure;BME280_temperature;BME280_humidity;BME280_pressure;Samples;Min_cycle;Max_cycle;Signal;HPM_P1;HPM_P2
2022/04/19 00:00:38;;;;;;;15.65;8.60;;;;;;;;;;5063978;28;20033;-81
2022/04/19 00:03:05;;;;;;;20.35;9.35;;;;;;;;;;5073905;28;20028;-82
2022/04/19 00:05:32;;;;;;;14.88;9.35;;;;;;;;;;5077518;28;20037;-83
2022/04/19 00:07:59;;;;;;;14.82;8.77;;;;;;;;;;5078778;28;20048;-82
2022/04/19 00:10:28;;;;;;;14.88;8.80;;;;;;;;;;5076792;28;20025;-81
2022/04/19 00:12:54;;;;;;;14.77;8.93;;;;;;;;;;5077700;28;20064;-81
2022/04/19 00:15:21;;;;;;;17.85;8.90;;;;;;;;;;5074581;28;20093;-82
2022/04/19 00:17:48;;;;;;;17.02;8.63;;;;;;;;;;5074838;28;20096;-82
2022/04/19 00:20:14;;;;;;;14.43;8.52;;;;;;;;;;5062048;28;20046;-82
2022/04/19 00:22:40;;;;;;;16.40;9.00;;;;;;;;;;5075631;28;20031;-82
2022/04/19 00:25:07;;;;;;;13.10;8.27;;;;;;;;;;5074316;28;20065;-80
2022/04/19 00:27:33;;;;;;;17.92;9.52;;;;;;;;;;5076052;28;20049;-81
2022/04/19 00:30:00;;;;;;;12.40;8.70;;;;;;;;;;5067500;28;20041;-82
2022/04/19 00:32:26;;;;;;;16.10;8.98;;;;;;;;;;5072573;28;20486;-81
2022/04/19 00:34:52;;;;;;;13.10;8.65;;;;;;;;;;5076094;28;20066;-83
2022/04/19 00:37:19;;;;;;;14.20;8.98;;;;;;;;;;5072083;28;20048;-81
2022/04/19 00:39:45;;;;;;;15.43;9.48;;;;;;;;;;5074784;28;20048;-83
2022/04/19 00:42:11;;;;;;;13.35;8.88;;;;;;;;;;5074202;28;20064;-82
2022/04/19 00:44:40;;;;;;;14.70;9.35;;;;;;;;;;5078255;28;20037;-81
2022/04/19 00:47:07;;;;;;;14.35;9.57;;;;;;;;;;5079412;28;20028;-80
2022/04/19 00:49:34;;;;;;;15.43;10.43;;;;;;;;;;5077571;28;20020;-82
2022/04/19 00:52:00;;;;;;;15.00;10.38;;;;;;;;;;5067010;28;20105;-83
2022/04/19 00:54:26;;;;;;;13.95;10.25;;;;;;;;;;5069812;28;20090;-82
2022/04/19 00:56:53;;;;;;;15.63;10.60;;;;;;;;;;5057744;28;20100;-83
2022/04/19 00:59:20;;;;;;;17.75;10.65;;;;;;;;;;5052786;28;20048;-82
2022/04/19 01:01:46;;;;;;;13.38;9.75;;;;;;;;;;5073777;28;20048;-82
2022/04/19 01:04:12;;;;;;;17.13;11.27;;;;;;;;;;5070251;28;20032;-81
2022/04/19 01:06:38;;;;;;;17.20;10.50;;;;;;;;;;5073908;28;20072;-82
2022/04/19 01:09:05;;;;;;;15.27;10.45;;;;;;;;;;5068247;28;20051;-82
2022/04/19 01:14:16;;;;;;;14.77;10.10;;;;;;;;;;5075860;28;20053;-82
2022/04/19 01:16:42;;;;;;;18.48;11.05;;;;;;;;;;5059195;28;20046;-82
2022/04/19 01:19:15;;;;;;;18.88;11.10;;;;;;;;;;5071102;28;20067;-82
2022/04/19 01:21:48;;;;;;;16.02;10.95;;;;;;;;;;5074283;28;20041;-82
2022/04/19 01:24:18;;;;;;;14.75;10.73;;;;;;;;;;5073520;28;20037;-83
2022/04/19 01:26:45;;;;;;;17.90;10.93;;;;;;;;;;5076090;28;20101;-82
2022/04/19 01:29:12;;;;;;;17.67;10.65;;;;;;;;;;5077054;28;20037;-82
2022/04/19 01:31:41;;;;;;;17.00;11.40;;;;;;;;;;5076331;28;20029;-82
2022/04/19 01:34:08;;;;;;;15.35;10.25;;;;;;;;;;5076996;28;20048;-82
2022/04/19 01:36:35;;;;;;;15.88;10.32;;;;;;;;;;5076645;28;20017;-82
2022/04/19 01:39:03;;;;;;;17.30;10.30;;;;;;;;;;5070624;28;20064;-81
2022/04/19 01:41:29;;;;;;;24.95;10.75;;;;;;;;;;5073108;28;20036;-81
2022/04/19 01:43:55;;;;;;;15.05;10.52;;;;;;;;;;5075337;28;20049;-81
2022/04/19 01:46:23;;;;;;;17.42;10.57;;;;;;;;;;5076465;28;20045;-82
2022/04/19 01:48:49;;;;;;;18.60;11.02;;;;;;;;;;5067092;28;20045;-82
2022/04/19 01:51:15;;;;;;;15.95;10.40;;;;;;;;;;5069189;28;20056;-82
2022/04/19 01:53:41;;;;;;;15.30;10.63;;;;;;;;;;5071857;28;20042;-82
2022/04/19 01:56:07;;;;;;;13.95;9.90;;;;;;;;;;5057771;28;20049;-82
2022/04/19 01:58:33;;;;;;;16.25;11.05;;;;;;;;;;5072536;28;20021;-83
2022/04/19 02:00:59;;;;;;;15.18;11.05;;;;;;;;;;5071966;28;20037;-82
2022/04/19 02:03:26;;;;;;;15.90;11.07;;;;;;;;;;5073916;28;20045;-83
2022/04/19 02:05:52;;;;;;;16.70;11.10;;;;;;;;;;5074281;28;20052;-83
2022/04/19 02:08:18;;;;;;;14.23;10.27;;;;;;;;;;5075114;28;20080;-84
2022/04/19 02:10:44;;;;;;;16.38;11.32;;;;;;;;;;5074293;28;20061;-83
2022/04/19 02:13:10;;;;;;;14.52;10.50;;;;;;;;;;5072010;28;20049;-80
2022/04/19 02:15:36;;;;;;;14.73;11.18;;;;;;;;;;5072960;28;20040;-82
2022/04/19 02:18:03;;;;;;;16.17;10.93;;;;;;;;;;5056316;28;20112;-83
2022/04/19 02:20:30;;;;;;;20.05;11.48;;;;;;;;;;5073439;28;20048;-83
2022/04/19 02:22:56;;;;;;;18.80;10.38;;;;;;;;;;5074309;28;20056;-82
2022/04/19 02:25:24;;;;;;;19.27;10.82;;;;;;;;;;5058139;28;20030;-83
2022/04/19 02:27:52;;;;;;;16.25;10.48;;;;;;;;;;5068855;28;20045;-82
2022/04/19 02:30:18;;;;;;;16.60;10.13;;;;;;;;;;5073874;28;20045;-83
2022/04/19 02:32:45;;;;;;;19.92;10.77;;;;;;;;;;5076680;28;20045;-84
2022/04/19 02:35:13;;;;;;;15.73;10.30;;;;;;;;;;5074012;28;20460;-83
2022/04/19 02:37:47;;;;;;;18.67;10.60;;;;;;;;;;5058197;28;20073;-82
2022/04/19 02:40:13;;;;;;;15.98;10.20;;;;;;;;;;5072710;28;20041;-82
2022/04/19 02:42:39;;;;;;;16.45;10.50;;;;;;;;;;5075185;28;20072;-82
2022/04/19 02:45:06;;;;;;;16.52;11.25;;;;;;;;;;5075488;28;20045;-83
2022/04/19 02:47:32;;;;;;;18.52;9.85;;;;;;;;;;5076635;28;20059;-82
2022/04/19 02:49:58;;;;;;;14.38;10.55;;;;;;;;;;5073678;28;20068;-82
2022/04/19 02:52:24;;;;;;;15.48;10.15;;;;;;;;;;5074395;28;20041;-83
2022/04/19 02:54:50;;;;;;;14.10;10.35;;;;;;;;;;5066196;28;20029;-83
2022/04/19 02:57:18;;;;;;;15.30;10.10;;;;;;;;;;5059370;28;20045;-82
2022/04/19 02:59:45;;;;;;;15.90;9.65;;;;;;;;;;5071173;28;20068;-82
2022/04/19 03:02:11;;;;;;;15.02;10.38;;;;;;;;;;5056332;28;20047;-82
2022/04/19 03:04:38;;;;;;;18.83;11.45;;;;;;;;;;5073197;28;20045;-83
2022/04/19 03:07:08;;;;;;;18.02;11.43;;;;;;;;;;5072762;28;20461;-82
2022/04/19 03:09:34;;;;;;;17.88;12.10;;;;;;;;;;5072625;28;20115;-82
2022/04/19 03:12:00;;;;;;;14.18;10.25;;;;;;;;;;5058274;28;20098;-83
2022/04/19 03:14:26;;;;;;;15.70;10.80;;;;;;;;;;5073770;28;20051;-81
2022/04/19 03:16:52;;;;;;;17.67;10.10;;;;;;;;;;5073754;28;20041;-82
2022/04/19 03:19:19;;;;;;;17.02;10.95;;;;;;;;;;5052669;28;20086;-81
2022/04/19 03:21:45;;;;;;;14.45;9.63;;;;;;;;;;5072189;28;20041;-83
2022/04/19 03:29:40;;;;;;;16.23;10.93;;;;;;;;;;5061930;28;20049;-82
2022/04/19 03:32:09;;;;;;;16.70;10.20;;;;;;;;;;5075409;28;20041;-82
2022/04/19 03:34:36;;;;;;;15.88;10.68;;;;;;;;;;5068901;28;20037;-82
2022/04/19 03:37:02;;;;;;;15.55;10.30;;;;;;;;;;5076871;28;20029;-83
2022/04/19 03:39:27;;;;;;;17.63;10.75;;;;;;;;;;5075214;28;20067;-81
2022/04/19 03:41:56;;;;;;;14.98;11.52;;;;;;;;;;5079470;28;20029;-83
2022/04/19 03:44:25;;;;;;;17.45;11.02;;;;;;;;;;5077727;28;20052;-82
2022/04/19 03:47:09;;;;;;;15.43;11.75;;;;;;;;;;5057801;28;20067;-82
2022/04/19 03:49:36;;;;;;;17.13;11.20;;;;;;;;;;5067020;28;20068;-83
2022/04/19 03:52:03;;;;;;;19.33;11.75;;;;;;;;;;5066821;28;20045;-82
2022/04/19 03:54:34;;;;;;;15.68;11.55;;;;;;;;;;5080040;28;20025;-83
2022/04/19 03:57:00;;;;;;;15.70;11.00;;;;;;;;;;5072311;28;20056;-82
2022/04/19 03:59:26;;;;;;;19.88;11.73;;;;;;;;;;5078157;28;20052;-83
2022/04/19 04:01:52;;;;;;;17.30;12.40;;;;;;;;;;5079066;28;20056;-83
2022/04/19 04:04:18;;;;;;;18.25;11.85;;;;;;;;;;5077179;28;20040;-82
2022/04/19 04:06:44;;;;;;;17.88;11.80;;;;;;;;;;5079415;28;20037;-82
2022/04/19 04:09:10;;;;;;;16.48;11.63;;;;;;;;;;5055504;28;20048;-82
2022/04/19 04:11:36;;;;;;;18.48;11.57;;;;;;;;;;5080395;28;20047;-83
2022/04/19 04:14:02;;;;;;;16.58;11.80;;;;;;;;;;5078740;28;20051;-83
2022/04/19 04:16:32;;;;;;;17.30;12.52;;;;;;;;;;5060442;28;20049;-82
2022/04/19 04:18:58;;;;;;;17.20;11.98;;;;;;;;;;5076605;28;20045;-82
2022/04/19 04:21:24;;;;;;;20.20;12.80;;;;;;;;;;5080085;28;20045;-84
2022/04/19 04:23:50;;;;;;;18.25;12.32;;;;;;;;;;5079420;28;20092;-83
2022/04/19 04:26:16;;;;;;;18.73;12.27;;;;;;;;;;5073847;28;20056;-82
2022/04/19 04:28:42;;;;;;;17.50;12.70;;;;;;;;;;5073775;28;20105;-82
2022/04/19 04:31:08;;;;;;;17.83;11.88;;;;;;;;;;5065575;28;20037;-83
2022/04/19 04:33:34;;;;;;;15.23;11.63;;;;;;;;;;5062094;28;20041;-83
2022/04/19 04:36:00;;;;;;;15.27;11.63;;;;;;;;;;5072805;28;20037;-82
2022/04/19 04:38:26;;;;;;;18.23;11.90;;;;;;;;;;5079657;28;20033;-82
2022/04/19 04:40:52;;;;;;;17.58;11.00;;;;;;;;;;5075680;28;20108;-82
2022/04/19 04:43:18;;;;;;;15.85;10.57;;;;;;;;;;5067618;28;20123;-83
2022/04/19 04:45:44;;;;;;;16.08;10.10;;;;;;;;;;5078417;28;20044;-82
2022/04/19 04:50:55;;;;;;;15.27;10.38;;;;;;;;;;5079121;28;20052;-83
2022/04/19 04:53:22;;;;;;;16.42;10.85;;;;;;;;;;5060580;28;20025;-83
2022/04/19 04:55:48;;;;;;;13.90;9.20;;;;;;;;;;5078154;28;20068;-83
2022/04/19 04:58:14;;;;;;;17.13;10.88;;;;;;;;;;5076560;28;20035;-84
2022/04/19 05:00:40;;;;;;;13.50;9.85;;;;;;;;;;5079578;28;20069;-83
2022/04/19 05:03:07;;;;;;;14.45;9.48;;;;;;;;;;5067696;28;20035;-81
2022/04/19 05:05:33;;;;;;;14.65;9.82;;;;;;;;;;5076111;28;20063;-81
2022/04/19 05:07:59;;;;;;;17.65;10.10;;;;;;;;;;5077441;28;20045;-84
2022/04/19 05:10:25;;;;;;;17.50;10.32;;;;;;;;;;5077136;28;20045;-83
2022/04/19 05:12:51;;;;;;;15.88;9.95;;;;;;;;;;5076113;28;20068;-82
2022/04/19 05:15:19;;;;;;;17.27;9.73;;;;;;;;;;5076028;28;20049;-82
2022/04/19 05:17:45;;;;;;;15.77;9.90;;;;;;;;;;5057446;28;20056;-83
2022/04/19 05:20:11;;;;;;;17.38;9.90;;;;;;;;;;5074439;28;20045;-83
2022/04/19 05:22:37;;;;;;;19.15;10.43;;;;;;;;;;5074088;28;20095;-83
2022/04/19 05:25:03;;;;;;;14.85;9.80;;;;;;;;;;5077371;28;20049;-83
2022/04/19 05:27:30;;;;;;;15.90;10.20;;;;;;;;;;5040408;28;20036;-83
2022/04/19 05:29:56;;;;;;;14.38;9.15;;;;;;;;;;5069600;28;20029;-83
2022/04/19 05:32:22;;;;;;;14.35;9.50;;;;;;;;;;5065397;28;20073;-81
2022/04/19 05:34:49;;;;;;;15.88;9.05;;;;;;;;;;5067951;28;20040;-82
2022/04/19 05:37:15;;;;;;;16.00;9.73;;;;;;;;;;5058906;28;20108;-82
2022/04/19 05:39:41;;;;;;;28.20;17.55;;;;;;;;;;5057944;28;20044;-83
2022/04/19 05:42:08;;;;;;;18.33;12.00;;;;;;;;;;5068835;28;20071;-83
2022/04/19 05:44:37;;;;;;;16.30;11.75;;;;;;;;;;5074358;28;20045;-83
2022/04/19 05:47:03;;;;;;;14.05;9.20;;;;;;;;;;5073726;28;20029;-82
2022/04/19 05:49:32;;;;;;;13.35;9.32;;;;;;;;;;5066640;28;20072;-82
2022/04/19 05:51:58;;;;;;;13.65;9.45;;;;;;;;;;5071969;28;20045;-83
2022/04/19 05:54:24;;;;;;;14.48;8.85;;;;;;;;;;5067173;28;20032;-82
2022/04/19 05:56:50;;;;;;;15.38;8.90;;;;;;;;;;5058351;28;20100;-83
2022/04/19 05:59:17;;;;;;;13.02;8.82;;;;;;;;;;5073895;28;20079;-83
2022/04/19 06:07:12;;;;;;;14.80;9.18;;;;;;;;;;5060116;28;20048;-82
2022/04/19 06:09:39;;;;;;;16.40;8.65;;;;;;;;;;5065461;28;20045;-82
2022/04/19 06:12:05;;;;;;;13.63;8.65;;;;;;;;;;5066699;28;20150;-82
2022/04/19 06:14:31;;;;;;;16.60;9.15;;;;;;;;;;5064196;28;20037;-82
2022/04/19 06:16:57;;;;;;;11.90;8.40;;;;;;;;;;5046717;28;20110;-82
2022/04/19 06:19:23;;;;;;;12.27;8.98;;;;;;;;;;5062968;28;20060;-83
2022/04/19 06:21:49;;;;;;;13.90;8.70;;;;;;;;;;5061912;28;20045;-82
2022/04/19 06:24:15;;;;;;;12.27;8.32;;;;;;;;;;5051920;28;20051;-82
2022/04/19 06:26:41;;;;;;;12.65;8.70;;;;;;;;;;5062987;28;20045;-82
2022/04/19 06:29:07;;;;;;;11.15;8.20;;;;;;;;;;5048019;28;20041;-83
2022/04/19 06:31:33;;;;;;;11.23;7.43;;;;;;;;;;5049780;28;20487;-82
2022/04/19 06:33:59;;;;;;;13.48;8.35;;;;;;;;;;5063631;28;20052;-83
2022/04/19 06:36:25;;;;;;;10.73;7.90;;;;;;;;;;5067241;28;20055;-83
2022/04/19 06:38:51;;;;;;;11.43;8.00;;;;;;;;;;5063563;28;20064;-82
2022/04/19 06:41:17;;;;;;;14.00;8.48;;;;;;;;;;5063727;28;20041;-83
2022/04/19 06:43:44;;;;;;;11.13;7.43;;;;;;;;;;5066720;28;20037;-82
2022/04/19 06:46:10;;;;;;;13.02;7.53;;;;;;;;;;5065884;28;20037;-82
2022/04/19 06:48:36;;;;;;;11.65;8.30;;;;;;;;;;5067360;28;20044;-83
2022/04/19 06:51:02;;;;;;;12.55;7.35;;;;;;;;;;5063707;28;20041;-82
2022/04/19 06:53:30;;;;;;;12.13;7.63;;;;;;;;;;5066929;28;20059;-82
2022/04/19 06:55:59;;;;;;;11.05;7.25;;;;;;;;;;5065818;28;20074;-82
2022/04/19 06:58:25;;;;;;;12.25;7.50;;;;;;;;;;5066641;28;20046;-83
2022/04/19 07:00:51;;;;;;;12.65;8.30;;;;;;;;;;5064097;28;20049;-82
2022/04/19 07:03:17;;;;;;;10.25;7.30;;;;;;;;;;5061434;28;20551;-82
2022/04/19 07:05:43;;;;;;;14.88;7.10;;;;;;;;;;5064155;28;20041;-82
2022/04/19 07:08:10;;;;;;;12.02;6.88;;;;;;;;;;5050010;28;20078;-81
2022/04/19 07:10:36;;;;;;;12.30;7.07;;;;;;;;;;5066080;28;20056;-83
2022/04/19 07:13:03;;;;;;;11.90;6.95;;;;;;;;;;5064198;28;20041;-81
2022/04/19 07:15:29;;;;;;;10.63;6.72;;;;;;;;;;5078216;28;20150;-82
2022/04/19 07:17:55;;;;;;;11.93;7.32;;;;;;;;;;5062871;28;20049;-83
2022/04/19 07:28:52;;;;;;;11.38;7.60;;;;;;;;;;5006597;28;20054;-82
2022/04/19 07:31:19;;;;;;;11.27;6.90;;;;;;;;;;5022545;28;20049;-82
2022/04/19 07:33:46;;;;;;;10.77;7.55;;;;;;;;;;5023880;28;20129;-82
2022/04/19 07:36:12;;;;;;;21.98;7.07;;;;;;;;;;5002508;28;20046;-83
2022/04/19 07:38:38;;;;;;;12.85;7.70;;;;;;;;;;4990404;28;20053;-82
2022/04/19 07:41:04;;;;;;;10.52;7.18;;;;;;;;;;4988865;28;20062;-82
2022/04/19 07:43:30;;;;;;;9.30;6.53;;;;;;;;;;5025137;28;20042;-82
2022/04/19 07:45:56;;;;;;;10.63;6.40;;;;;;;;;;5006284;28;20046;-83
2022/04/19 07:48:22;;;;;;;10.32;6.80;;;;;;;;;;5020696;28;20109;-82
2022/04/19 07:50:48;;;;;;;12.82;6.22;;;;;;;;;;5022370;28;20046;-82
2022/04/19 07:53:15;;;;;;;9.57;5.53;;;;;;;;;;5024259;28;20132;-82
2022/04/19 07:55:41;;;;;;;8.00;5.43;;;;;;;;;;5024929;28;20097;-82
2022/04/19 07:58:07;;;;;;;10.00;4.82;;;;;;;;;;5023687;28;20038;-84
2022/04/19 08:00:33;;;;;;;8.20;4.30;;;;;;;;;;5051619;28;20056;-82
2022/04/19 08:02:59;;;;;;;8.93;4.93;;;;;;;;;;5065076;28;20070;-82
2022/04/19 08:05:26;;;;;;;9.10;5.03;;;;;;;;;;5061376;28;20068;-84
2022/04/19 08:07:52;;;;;;;7.65;5.00;;;;;;;;;;5062323;28;20041;-82
2022/04/19 08:10:19;;;;;;;7.90;4.82;;;;;;;;;;5062127;28;20049;-83
2022/04/19 08:12:45;;;;;;;9.98;4.90;;;;;;;;;;5063728;28;20053;-81
2022/04/19 08:15:11;;;;;;;7.43;4.32;;;;;;;;;;5064714;28;20533;-82
2022/04/19 08:17:38;;;;;;;10.27;4.90;;;;;;;;;;5065473;28;20041;-82
2022/04/19 08:20:05;;;;;;;9.00;4.88;;;;;;;;;;5064328;28;20060;-82
2022/04/19 08:22:31;;;;;;;8.77;5.05;;;;;;;;;;5063914;28;20041;-81
2022/04/19 08:24:57;;;;;;;7.68;4.65;;;;;;;;;;5063327;28;20059;-81
2022/04/19 08:27:24;;;;;;;9.85;4.50;;;;;;;;;;5065030;28;20068;-82
2022/04/19 08:29:50;;;;;;;7.65;4.10;;;;;;;;;;5067405;28;20045;-81
2022/04/19 08:32:16;;;;;;;7.28;3.38;;;;;;;;;;5068776;28;20048;-81
2022/04/19 08:34:42;;;;;;;8.10;3.65;;;;;;;;;;5066530;28;20021;-82
2022/04/19 08:37:09;;;;;;;7.22;2.80;;;;;;;;;;5066303;28;20056;-81
2022/04/19 08:39:36;;;;;;;6.35;2.90;;;;;;;;;;5049170;28;20468;-82
2022/04/19 08:42:03;;;;;;;11.32;3.63;;;;;;;;;;5067117;28;20493;-81
2022/04/19 08:44:29;;;;;;;7.82;2.88;;;;;;;;;;5066630;28;20041;-81
2022/04/19 08:46:55;;;;;;;7.32;3.13;;;;;;;;;;5066303;28;20049;-82
2022/04/19 08:49:22;;;;;;;5.03;2.63;;;;;;;;;;5064414;28;20051;-81
2022/04/19 08:51:49;;;;;;;7.78;2.60;;;;;;;;;;5067655;28;20049;-81
2022/04/19 08:59:45;;;;;;;8.48;2.95;;;;;;;;;;5069608;28;20407;-80
2022/04/19 09:02:21;;;;;;;6.22;2.80;;;;;;;;;;5067886;28;20397;-80
2022/04/19 09:04:47;;;;;;;7.90;2.60;;;;;;;;;;5059170;28;20051;-81
2022/04/19 09:07:13;;;;;;;5.93;2.53;;;;;;;;;;5066942;28;20044;-81
2022/04/19 09:09:39;;;;;;;7.38;2.53;;;;;;;;;;5063605;28;20048;-81
2022/04/19 09:12:07;;;;;;;7.32;2.90;;;;;;;;;;5068010;28;20060;-80
2022/04/19 09:14:33;;;;;;;8.73;3.10;;;;;;;;;;5065693;28;20044;-79
2022/04/19 09:17:08;;;;;;;5.82;2.90;;;;;;;;;;5064924;28;20033;-80
2022/04/19 09:19:34;;;;;;;6.70;3.03;;;;;;;;;;5065901;28;20053;-81
2022/04/19 09:22:00;;;;;;;6.32;3.17;;;;;;;;;;5065289;28;20064;-81
2022/04/19 09:24:27;;;;;;;8.10;2.60;;;;;;;;;;5065116;28;20048;-81
2022/04/19 09:26:53;;;;;;;7.95;4.00;;;;;;;;;;5055105;28;20068;-79
2022/04/19 09:29:28;;;;;;;10.07;3.35;;;;;;;;;;5065835;28;20183;-80
2022/04/19 09:31:57;;;;;;;5.93;2.90;;;;;;;;;;5065176;28;20040;-80
2022/04/19 09:34:28;;;;;;;6.35;2.85;;;;;;;;;;5066800;28;20067;-79
2022/04/19 09:37:14;;;;;;;5.65;2.45;;;;;;;;;;5065595;28;20617;-80
2022/04/19 09:39:41;;;;;;;6.65;2.20;;;;;;;;;;5065406;28;20049;-79
2022/04/19 09:42:14;;;;;;;5.85;2.42;;;;;;;;;;5065822;28;20045;-79
2022/04/19 09:44:41;;;;;;;5.72;2.47;;;;;;;;;;5066655;28;20060;-80
2022/04/19 09:47:08;;;;;;;7.25;2.65;;;;;;;;;;5067485;28;20045;-80
2022/04/19 09:49:51;;;;;;;6.43;2.30;;;;;;;;;;5066398;28;20494;-84
2022/04/19 09:52:23;;;;;;;6.95;2.35;;;;;;;;;;5061342;28;20040;-80
2022/04/19 09:55:09;;;;;;;7.43;2.10;;;;;;;;;;5064929;28;20098;-79
2022/04/19 09:57:37;;;;;;;4.18;1.95;;;;;;;;;;5045896;28;20178;-81
2022/04/19 10:00:11;;;;;;;5.50;2.40;;;;;;;;;;5054672;28;20841;-80
2022/04/19 10:08:19;;;;;;;5.47;1.73;;;;;;;;;;5062445;28;20053;-80
2022/04/19 10:10:45;;;;;;;4.32;2.08;;;;;;;;;;5061189;28;20116;-80
2022/04/19 10:13:13;;;;;;;5.35;2.00;;;;;;;;;;5063237;28;20053;-79
2022/04/19 10:15:40;;;;;;;4.47;1.70;;;;;;;;;;5061820;28;20049;-81
2022/04/19 10:18:07;;;;;;;6.13;1.90;;;;;;;;;;5063559;28;20067;-81
2022/04/19 10:20:39;;;;;;;5.78;1.80;;;;;;;;;;5063789;28;20508;-81
2022/04/19 10:23:10;;;;;;;5.13;1.90;;;;;;;;;;5063006;28;20045;-81
2022/04/19 10:25:41;;;;;;;5.38;2.15;;;;;;;;;;5062479;28;20105;-82
2022/04/19 10:28:13;;;;;;;9.05;2.10;;;;;;;;;;5065359;28;20049;-80
2022/04/19 10:30:46;;;;;;;7.15;2.15;;;;;;;;;;5061074;28;20462;-80
2022/04/19 10:33:31;;;;;;;8.10;2.20;;;;;;;;;;5059324;28;20043;-81
2022/04/19 10:36:10;;;;;;;7.85;2.42;;;;;;;;;;5044403;28;20088;-81
2022/04/19 10:38:36;;;;;;;4.80;2.33;;;;;;;;;;5052328;28;20044;-80
2022/04/19 10:41:03;;;;;;;6.22;2.47;;;;;;;;;;5029507;28;20041;-80
2022/04/19 10:43:29;;;;;;;5.38;2.20;;;;;;;;;;5058733;28;20052;-82
2022/04/19 10:46:09;;;;;;;4.60;2.10;;;;;;;;;;5059656;28;20044;-81
2022/04/19 10:48:35;;;;;;;5.65;2.60;;;;;;;;;;5062088;28;20088;-81
2022/04/19 10:51:21;;;;;;;6.38;2.70;;;;;;;;;;5059308;28;20045;-82
2022/04/19 10:53:47;;;;;;;6.47;2.60;;;;;;;;;;5051235;28;20045;-82
2022/04/19 10:56:13;;;;;;;5.72;2.80;;;;;;;;;;5055477;28;20043;-80
2022/04/19 10:58:40;;;;;;;4.97;2.40;;;;;;;;;;5065798;28;20045;-81
2022/04/19 11:01:10;;;;;;;7.10;2.50;;;;;;;;;;5064037;28;20071;-81
2022/04/19 11:03:39;;;;;;;6.35;2.45;;;;;;;;;;5063923;28;20098;-79
2022/04/19 11:06:31;;;;;;;5.10;2.22;;;;;;;;;;5065349;28;20048;-81
2022/04/19 11:09:06;;;;;;;6.30;2.38;;;;;;;;;;5063790;28;20048;-80
2022/04/19 11:11:44;;;;;;;7.65;2.58;;;;;;;;;;5052379;28;20044;-80
2022/04/19 11:14:17;;;;;;;7.55;2.58;;;;;;;;;;5040751;28;20048;-81
2022/04/19 11:16:43;;;;;;;10.02;2.70;;;;;;;;;;5058756;28;20108;-81
2022/04/19 11:19:17;;;;;;;6.05;2.25;;;;;;;;;;5062695;28;20499;-82
2022/04/19 11:21:52;;;;;;;6.43;2.60;;;;;;;;;;5058243;28;20095;-81
2022/04/19 11:24:37;;;;;;;6.05;2.10;;;;;;;;;;5065397;28;20033;-82
2022/04/19 11:27:03;;;;;;;8.52;2.33;;;;;;;;;;5051422;28;20049;-80
2022/04/19 11:29:47;;;;;;;7.15;2.65;;;;;;;;;;5030423;28;20072;-80
2022/04/19 11:32:13;;;;;;;5.97;2.50;;;;;;;;;;5039169;28;20033;-80
2022/04/19 11:34:39;;;;;;;5.90;2.55;;;;;;;;;;5046342;28;20041;-80
2022/04/19 11:37:06;;;;;;;6.53;2.75;;;;;;;;;;5062481;28;20060;-79
2022/04/19 11:47:58;;;;;;;6.10;3.20;;;;;;;;;;5047409;28;20471;-80
2022/04/19 11:50:29;;;;;;;7.68;3.50;;;;;;;;;;5045995;28;20044;-81
2022/04/19 11:52:55;;;;;;;8.65;3.28;;;;;;;;;;5039839;28;20148;-81
2022/04/19 11:55:25;;;;;;;6.55;3.38;;;;;;;;;;5054424;28;20041;-80
2022/04/19 11:58:09;;;;;;;7.15;2.90;;;;;;;;;;5060269;28;20101;-80
2022/04/19 12:00:36;;;;;;;6.85;3.25;;;;;;;;;;5042670;28;20109;-81
2022/04/19 12:03:22;;;;;;;7.55;3.10;;;;;;;;;;5073894;28;20045;-82
2022/04/19 12:05:48;;;;;;;10.02;2.65;;;;;;;;;;5052479;28;20050;-81
2022/04/19 12:08:29;;;;;;;5.88;2.25;;;;;;;;;;5052025;28;20103;-80
2022/04/19 12:10:55;;;;;;;8.48;3.00;;;;;;;;;;5037059;28;20049;-81
2022/04/19 12:13:22;;;;;;;6.47;2.70;;;;;;;;;;5045314;28;20105;-80
2022/04/19 12:15:48;;;;;;;7.85;2.97;;;;;;;;;;5065268;28;20044;-80
2022/04/19 12:18:29;;;;;;;6.72;2.80;;;;;;;;;;5068887;28;20075;-80
2022/04/19 12:20:55;;;;;;;8.57;2.70;;;;;;;;;;5049849;28;20045;-79
2022/04/19 12:23:21;;;;;;;7.78;2.70;;;;;;;;;;5048262;28;20037;-80
2022/04/19 12:26:02;;;;;;;5.70;2.38;;;;;;;;;;5058319;28;20045;-79
2022/04/19 12:28:28;;;;;;;;;;;;;;;;;;5063896;28;20080;-79
2022/04/19 12:30:54;;;;;;;6.00;2.28;;;;;;;;;;5065426;28;20437;-79
2022/04/19 12:33:20;;;;;;;4.97;2.58;;;;;;;;;;5065904;28;20071;-79
2022/04/19 12:35:53;;;;;;;8.30;2.50;;;;;;;;;;5048818;28;20041;-78
2022/04/19 12:38:19;;;;;;;7.60;2.33;;;;;;;;;;5058836;28;20101;-79
2022/04/19 12:40:46;;;;;;;7.72;2.95;;;;;;;;;;5067268;28;20048;-79
2022/04/19 12:43:14;;;;;;;7.95;2.40;;;;;;;;;;5058221;28;20083;-80
2022/04/19 12:45:41;;;;;;;8.60;3.00;;;;;;;;;;5068014;28;20119;-79
2022/04/19 12:48:16;;;;;;;5.70;2.53;;;;;;;;;;5065920;28;20041;-79
2022/04/19 12:50:42;;;;;;;7.20;2.90;;;;;;;;;;5061165;28;20045;-80
2022/04/19 12:53:22;;;;;;;9.73;2.50;;;;;;;;;;5066111;28;20052;-79
2022/04/19 12:55:48;;;;;;;8.43;2.55;;;;;;;;;;5064870;28;20056;-80
2022/04/19 12:58:14;;;;;;;4.32;1.98;;;;;;;;;;5069367;28;20041;-79
2022/04/19 13:00:40;;;;;;;7.22;2.28;;;;;;;;;;5066499;28;20048;-79
2022/04/19 13:03:06;;;;;;;6.43;2.28;;;;;;;;;;5062172;28;20041;-80
2022/04/19 13:13:59;;;;;;;8.20;2.10;;;;;;;;;;5065845;28;20097;-79
2022/04/19 13:16:25;;;;;;;7.15;2.20;;;;;;;;;;5059173;28;20041;-79
2022/04/19 13:18:51;;;;;;;5.68;2.30;;;;;;;;;;5066700;28;20049;-80
2022/04/19 13:21:17;;;;;;;6.10;2.20;;;;;;;;;;5057256;28;20049;-79
2022/04/19 13:23:43;;;;;;;6.50;2.70;;;;;;;;;;5049850;28;20053;-80
2022/04/19 13:26:09;;;;;;;6.45;2.20;;;;;;;;;;5030184;28;20061;-80
2022/04/19 13:28:35;;;;;;;6.60;2.08;;;;;;;;;;5045035;28;20064;-80
2022/04/19 13:31:01;;;;;;;6.82;2.22;;;;;;;;;;5037538;28;20053;-79
2022/04/19 13:33:27;;;;;;;4.82;2.40;;;;;;;;;;5026176;28;20104;-81
2022/04/19 13:35:53;;;;;;;5.68;2.28;;;;;;;;;;5045449;28;20065;-78
2022/04/19 13:38:25;;;;;;;4.70;2.10;;;;;;;;;;5016399;28;20050;-80
2022/04/19 13:40:52;;;;;;;8.25;2.47;;;;;;;;;;5027824;28;20042;-82
2022/04/19 13:43:18;;;;;;;5.97;2.38;;;;;;;;;;5042897;28;20049;-80
2022/04/19 13:45:44;;;;;;;7.03;2.50;;;;;;;;;;5032576;28;20176;-81
2022/04/19 13:48:10;;;;;;;6.90;2.90;;;;;;;;;;5029578;28;20480;-78
2022/04/19 13:50:36;;;;;;;6.85;2.95;;;;;;;;;;5051466;28;20052;-78
2022/04/19 13:53:02;;;;;;;6.10;2.40;;;;;;;;;;5052091;28;20045;-80
2022/04/19 13:55:32;;;;;;;7.70;3.15;;;;;;;;;;5037660;28;20052;-78
2022/04/19 13:57:58;;;;;;;6.55;2.97;;;;;;;;;;5050305;28;20209;-80
2022/04/19 14:00:24;;;;;;;7.47;3.10;;;;;;;;;;5045521;28;20101;-80
2022/04/19 14:02:50;;;;;;;7.40;2.92;;;;;;;;;;5028840;28;20049;-80
2022/04/19 14:05:17;;;;;;;8.02;3.08;;;;;;;;;;5045018;28;20041;-79
2022/04/19 14:07:43;;;;;;;6.07;2.60;;;;;;;;;;5044686;28;20096;-83
2022/04/19 14:10:09;;;;;;;6.90;2.72;;;;;;;;;;5049539;28;20045;-80
2022/04/19 14:12:36;;;;;;;5.55;2.55;;;;;;;;;;5018542;28;20041;-81
2022/04/19 14:15:03;;;;;;;7.00;2.50;;;;;;;;;;5047614;28;20052;-80
2022/04/19 14:17:29;;;;;;;6.90;3.08;;;;;;;;;;5045535;28;20045;-79
2022/04/19 14:19:56;;;;;;;6.93;2.60;;;;;;;;;;5044465;28;20045;-80
2022/04/19 14:22:23;;;;;;;5.43;2.92;;;;;;;;;;5044461;28;20053;-80
2022/04/19 14:24:49;;;;;;;6.75;2.90;;;;;;;;;;5042741;28;20053;-81
2022/04/19 14:27:15;;;;;;;6.78;2.50;;;;;;;;;;5046873;28;20038;-81
2022/04/19 14:35:11;;;;;;;5.88;2.90;;;;;;;;;;5046815;28;20042;-81
2022/04/19 14:37:37;;;;;;;6.53;3.28;;;;;;;;;;5046912;28;20128;-81
2022/04/19 14:40:04;;;;;;;6.40;3.28;;;;;;;;;;5043395;28;20041;-81
2022/04/19 14:42:30;;;;;;;7.05;3.42;;;;;;;;;;5053566;28;20043;-82
2022/04/19 14:44:56;;;;;;;7.95;3.60;;;;;;;;;;5031217;28;20041;-80
2022/04/19 14:47:22;;;;;;;6.35;2.97;;;;;;;;;;5044183;28;20051;-82
2022/04/19 14:49:48;;;;;;;7.07;3.42;;;;;;;;;;5051107;28;20045;-80
2022/04/19 14:52:16;;;;;;;10.88;3.40;;;;;;;;;;5026997;28;20040;-81
2022/04/19 14:54:42;;;;;;;6.80;3.50;;;;;;;;;;5048322;28;20109;-81
2022/04/19 14:57:08;;;;;;;8.65;3.65;;;;;;;;;;5012608;28;20084;-81
2022/04/19 14:59:35;;;;;;;6.28;3.45;;;;;;;;;;5047474;28;20164;-81
2022/04/19 15:02:01;;;;;;;7.63;3.70;;;;;;;;;;5048363;28;20054;-82
2022/04/19 15:04:27;;;;;;;7.93;4.05;;;;;;;;;;4999414;28;20129;-82
2022/04/19 15:06:53;;;;;;;8.40;3.70;;;;;;;;;;5041377;28;20037;-81
2022/04/19 15:09:19;;;;;;;9.43;4.32;;;;;;;;;;5031153;28;20046;-82
2022/04/19 15:11:45;;;;;;;7.88;4.45;;;;;;;;;;5044132;28;20048;-82
2022/04/19 15:14:12;;;;;;;8.32;4.47;;;;;;;;;;5016622;28;20046;-81
2022/04/19 15:16:38;;;;;;;7.75;4.10;;;;;;;;;;5022974;28;20068;-82
2022/04/19 15:19:04;;;;;;;8.63;4.10;;;;;;;;;;5034036;28;20045;-81
2022/04/19 15:21:30;;;;;;;10.07;4.75;;;;;;;;;;5048447;28;20041;-81
2022/04/19 15:23:56;;;;;;;7.75;4.88;;;;;;;;;;5052607;28;20042;-81
2022/04/19 15:26:23;;;;;;;8.05;5.22;;;;;;;;;;5050235;28;20055;-81
2022/04/19 15:28:49;;;;;;;9.27;5.20;;;;;;;;;;5040511;28;20109;-81
2022/04/19 15:31:15;;;;;;;8.70;4.70;;;;;;;;;;5035466;28;20491;-80
2022/04/19 15:33:41;;;;;;;8.30;5.45;;;;;;;;;;5071821;28;20033;-80